createdAt,value
2022-12-23T00:00:01.986Z,6.38
2022-12-23T00:05:07.351Z,6.69
2022-12-23T00:10:11.472Z,6.10
2022-12-23T00:15:15.635Z,6.66
2022-12-23T00:20:19.135Z,6.32
2022-12-23T00:25:41.114Z,5.82
2022-12-23T00:30:50.376Z,6.66
2022-12-23T00:35:54.569Z,6.44
2022-12-23T00:41:16.767Z,6.39
2022-12-23T00:46:23.614Z,6.31
2022-12-23T00:51:27.154Z,6.32
2022-12-23T00:56:31.313Z,6.50
2022-12-23T01:01:53.203Z,6.41
2022-12-23T01:06:57.963Z,6.51
2022-12-23T01:12:01.516Z,6.49
2022-12-23T01:17:07.568Z,6.48
2022-12-23T01:22:11.247Z,6.37
2022-12-23T01:27:21.917Z,6.27
2022-12-23T01:32:25.398Z,6.45
2022-12-23T01:37:28.827Z,6.60
2022-12-23T01:42:44.557Z,6.35
2022-12-23T01:48:12.412Z,6.55
2022-12-23T01:53:23.787Z,6.67
2022-12-23T01:58:35.448Z,6.80
2022-12-23T02:03:45.365Z,5.84
2022-12-23T02:09:07.160Z,6.57
2022-12-23T02:14:48.250Z,6.56
2022-12-23T02:20:31.493Z,6.63
2022-12-23T02:26:07.650Z,6.19
2022-12-23T02:31:12.147Z,6.59
2022-12-23T02:36:37.651Z,6.65
2022-12-23T02:41:54.492Z,6.58
2022-12-23T02:47:04.954Z,6.57
2022-12-23T02:52:14.904Z,6.50
2022-12-23T02:57:23.715Z,6.15
2022-12-23T03:02:27.408Z,6.23
2022-12-23T03:07:36.090Z,6.41
2022-12-23T03:13:05.025Z,7.02
2022-12-23T03:18:14.349Z,6.87
2022-12-23T03:23:27.215Z,6.52
2022-12-23T03:28:53.948Z,6.80
2022-12-23T03:34:03.011Z,6.64
2022-12-23T03:39:11.723Z,6.28
2022-12-23T03:44:24.756Z,6.38
2022-12-23T03:49:34.586Z,6.82
2022-12-23T03:54:44.311Z,6.89
2022-12-23T03:59:52.262Z,6.88
2022-12-23T04:05:06.960Z,6.95
2022-12-23T04:10:11.735Z,6.89
2022-12-23T04:15:20.280Z,6.54
2022-12-23T04:20:24.629Z,6.90
2022-12-23T04:25:29.418Z,6.84
2022-12-23T04:30:34.771Z,6.52
2022-12-23T04:35:38.511Z,6.76
2022-12-23T04:40:53.229Z,7.01
2022-12-23T04:45:57.354Z,7.05
2022-12-23T04:51:03.904Z,6.68
2022-12-23T04:56:07.376Z,6.92
2022-12-23T05:01:12.369Z,7.12
2022-12-23T05:06:16.025Z,7.09
2022-12-23T05:11:19.821Z,6.55
2022-12-23T05:16:26.855Z,7.39
2022-12-23T05:21:30.498Z,7.34
2022-12-23T05:26:34.073Z,7.40
2022-12-23T05:31:37.884Z,7.35
2022-12-23T05:36:41.628Z,7.41
2022-12-23T05:41:46.605Z,7.21
2022-12-23T05:46:49.996Z,7.56
2022-12-23T05:51:53.382Z,6.86
2022-12-23T05:56:56.733Z,7.19
2022-12-23T06:02:00.496Z,6.83
2022-12-23T06:07:04.733Z,7.51
2022-12-23T06:12:08.366Z,7.59
2022-12-23T06:17:11.813Z,6.81
2022-12-23T06:22:17.025Z,7.08
2022-12-23T06:27:20.401Z,7.59
2022-12-23T06:32:24.199Z,6.78
2022-12-23T06:37:27.709Z,6.99
2022-12-23T06:42:31.286Z,7.33
2022-12-23T06:47:34.912Z,7.67
2022-12-23T06:52:38.339Z,6.83
2022-12-23T06:57:48.265Z,7.37
2022-12-23T07:02:54.369Z,7.67
2022-12-23T07:07:58.759Z,7.47
2022-12-23T07:13:02.398Z,7.24
2022-12-23T07:18:06.646Z,7.74
2022-12-23T07:23:10.092Z,7.73
2022-12-23T07:28:13.739Z,7.76
2022-12-23T07:33:17.433Z,7.75
2022-12-23T07:38:20.804Z,7.72
2022-12-23T07:43:24.394Z,7.78
2022-12-23T07:48:27.790Z,7.52
2022-12-23T07:53:31.718Z,7.64
2022-12-23T07:58:35.373Z,7.84
2022-12-23T08:03:38.911Z,7.75
2022-12-23T08:08:51.616Z,7.68
2022-12-23T08:13:55.160Z,7.58
2022-12-23T08:18:58.613Z,7.66
2022-12-23T08:24:02.061Z,7.37
2022-12-23T08:29:05.491Z,7.60
2022-12-23T08:34:09.695Z,7.39
2022-12-23T08:39:14.478Z,7.28
2022-12-23T08:44:18.453Z,7.54
2022-12-23T08:49:21.942Z,7.44
2022-12-23T08:54:30.933Z,7.35
2022-12-23T08:59:34.398Z,7.28
2022-12-23T09:04:37.938Z,7.25
2022-12-23T09:09:41.453Z,7.39
2022-12-23T09:14:48.445Z,6.95
2022-12-23T09:19:53.141Z,7.52
2022-12-23T09:25:03.137Z,7.55
2022-12-23T09:30:08.912Z,7.55
2022-12-23T09:35:12.341Z,7.67
2022-12-23T09:40:20.447Z,7.82
2022-12-23T09:45:41.066Z,7.92
2022-12-23T09:50:46.465Z,7.82
2022-12-23T09:56:02.982Z,7.68
2022-12-23T10:01:09.371Z,8.19
2022-12-23T10:06:20.917Z,8.16
2022-12-23T10:11:28.273Z,7.68
2022-12-23T10:16:36.094Z,8.25
2022-12-23T10:21:48.294Z,8.32
2022-12-23T10:26:56.572Z,8.30
2022-12-23T10:32:15.604Z,8.16
2022-12-23T10:37:35.792Z,7.93
2022-12-23T10:43:05.044Z,8.02
2022-12-23T10:48:27.494Z,7.94
2022-12-23T10:53:41.194Z,7.65
2022-12-23T10:58:47.501Z,7.73
2022-12-23T11:04:06.707Z,7.58
2022-12-23T11:09:17.550Z,7.61
2022-12-23T11:14:35.269Z,7.48
2022-12-23T11:19:48.119Z,7.17
2022-12-23T11:24:51.435Z,7.18
2022-12-23T11:29:55.685Z,7.43
2022-12-23T11:34:58.478Z,7.12
2022-12-23T11:40:24.994Z,7.17
2022-12-23T11:45:31.634Z,7.42
2022-12-23T11:50:40.111Z,7.24
2022-12-23T11:55:59.112Z,7.14
2022-12-23T12:01:08.839Z,6.95
2022-12-23T12:06:15.752Z,7.20
2022-12-23T12:11:22.901Z,7.19
2022-12-23T12:16:40.630Z,7.34
2022-12-23T12:21:45.591Z,6.91
2022-12-23T12:26:55.094Z,6.98
2022-12-23T12:32:28.236Z,6.79
2022-12-23T12:37:58.262Z,6.34
2022-12-23T12:43:08.043Z,6.57
2022-12-23T12:48:30.237Z,6.63
2022-12-23T12:53:34.474Z,6.53
2022-12-23T12:58:39.179Z,6.75
2022-12-23T13:04:11.304Z,6.98
2022-12-23T13:09:43.149Z,6.92
2022-12-23T13:15:03.973Z,6.76
2022-12-23T13:20:33.895Z,6.83
2022-12-23T13:25:50.443Z,6.69
2022-12-23T13:31:16.585Z,6.85
2022-12-23T13:36:59.532Z,6.89
2022-12-23T13:42:06.012Z,6.80
2022-12-23T13:47:23.064Z,6.24
2022-12-23T13:52:48.444Z,6.96
2022-12-23T13:58:17.323Z,6.95
2022-12-23T14:03:38.523Z,6.97
2022-12-23T14:08:43.433Z,7.06
2022-12-23T14:13:59.106Z,6.69
2022-12-23T14:19:34.808Z,6.96
2022-12-23T14:25:12.918Z,7.03
2022-12-23T14:30:27.298Z,6.92
2022-12-23T14:35:38.493Z,6.99
2022-12-23T14:40:44.822Z,6.98
2022-12-23T14:45:47.654Z,6.81
2022-12-23T14:51:10.315Z,7.11
2022-12-23T14:56:24.291Z,6.96
2022-12-23T15:01:29.782Z,6.98
2022-12-23T15:06:42.897Z,7.00
2022-12-23T15:11:45.752Z,6.84
2022-12-23T15:16:48.472Z,6.79
2022-12-23T15:22:22.301Z,6.81
2022-12-23T15:27:30.793Z,6.68
2022-12-23T15:32:33.496Z,6.87
2022-12-23T15:37:36.376Z,6.22
2022-12-23T15:42:39.804Z,6.79
2022-12-23T15:47:44.040Z,6.65
2022-12-23T15:52:49.900Z,6.78
2022-12-23T15:57:53.372Z,6.24
2022-12-23T16:03:01.163Z,6.95
2022-12-23T16:08:09.463Z,6.94
2022-12-23T16:13:20.231Z,6.11
2022-12-23T16:18:33.531Z,6.86
2022-12-23T16:23:38.149Z,6.21
2022-12-23T16:28:44.273Z,6.98
2022-12-23T16:33:59.184Z,7.02
2022-12-23T16:39:21.196Z,7.07
2022-12-23T16:44:23.989Z,6.46
2022-12-23T16:49:33.471Z,6.86
2022-12-23T16:54:37.105Z,6.60
2022-12-23T16:59:44.542Z,6.34
2022-12-23T17:04:48.046Z,6.87
2022-12-23T17:09:51.408Z,6.72
2022-12-23T17:14:54.812Z,6.81
2022-12-23T17:19:58.550Z,6.60
2022-12-23T17:25:02.677Z,6.89
2022-12-23T17:30:18.990Z,6.90
2022-12-23T17:35:32.411Z,6.88
2022-12-23T17:40:35.882Z,6.25
2022-12-23T17:45:39.346Z,6.20
2022-12-23T17:50:43.530Z,6.78
2022-12-23T17:55:47.075Z,6.82
2022-12-23T18:00:50.596Z,6.45
2022-12-23T18:06:01.127Z,5.98
2022-12-23T18:11:06.083Z,6.52
2022-12-23T18:16:12.945Z,6.84
2022-12-23T18:21:26.587Z,6.66
2022-12-23T18:26:29.969Z,5.71
2022-12-23T18:31:33.672Z,6.36
2022-12-23T18:36:37.173Z,6.59
2022-12-23T18:41:41.765Z,6.72
2022-12-23T18:46:45.211Z,6.68
2022-12-23T18:51:48.704Z,6.82
2022-12-23T18:56:52.267Z,6.61
2022-12-23T19:01:56.954Z,6.80
2022-12-23T19:07:00.416Z,6.58
2022-12-23T19:12:04.530Z,6.67
2022-12-23T19:17:07.895Z,6.40
2022-12-23T19:22:11.872Z,6.45
2022-12-23T19:27:24.668Z,6.75
2022-12-23T19:32:28.334Z,6.74
2022-12-23T19:37:33.799Z,6.49
2022-12-23T19:42:41.117Z,6.47
2022-12-23T19:47:44.589Z,6.61
2022-12-23T19:52:48.067Z,6.81
2022-12-23T19:58:05.519Z,6.47
2022-12-23T20:03:09.020Z,6.67
2022-12-23T20:08:12.395Z,6.43
2022-12-23T20:13:15.809Z,6.39
2022-12-23T20:18:19.656Z,6.74
2022-12-23T20:23:23.554Z,6.66
2022-12-23T20:28:27.303Z,6.31
2022-12-23T20:33:30.810Z,6.48
2022-12-23T20:38:36.495Z,6.65
2022-12-23T20:43:40.216Z,6.53
2022-12-23T20:49:03.666Z,6.62
2022-12-23T20:54:06.602Z,6.75
2022-12-23T20:59:09.302Z,6.64
2022-12-23T21:04:16.501Z,5.80
2022-12-23T21:09:19.166Z,6.72
2022-12-23T21:14:21.907Z,6.52
2022-12-23T21:19:27.327Z,6.48
2022-12-23T21:24:30.075Z,6.09
2022-12-23T21:29:32.811Z,6.54
2022-12-23T21:34:35.467Z,6.38
2022-12-23T21:39:38.141Z,6.19
2022-12-23T21:44:41.059Z,6.87
2022-12-23T21:49:45.043Z,6.44
2022-12-23T21:54:58.081Z,6.63
2022-12-23T22:00:02.052Z,6.52
2022-12-23T22:05:06.347Z,6.73
2022-12-23T22:10:09.650Z,6.49
2022-12-23T22:15:12.398Z,6.02
2022-12-23T22:20:15.175Z,6.65
2022-12-23T22:25:18.922Z,6.71
2022-12-23T22:30:30.449Z,6.64
2022-12-23T22:35:33.093Z,6.42
2022-12-23T22:40:36.251Z,6.87
2022-12-23T22:45:38.946Z,6.52
2022-12-23T22:50:41.695Z,6.07
2022-12-23T22:55:44.788Z,6.33
2022-12-23T23:00:47.717Z,5.94
2022-12-23T23:05:58.378Z,6.60
2022-12-23T23:11:04.380Z,6.57
2022-12-23T23:16:07.817Z,6.63
2022-12-23T23:21:13.289Z,6.09
2022-12-23T23:26:16.330Z,6.55
2022-12-23T23:36:42.485Z,5.83
2022-12-23T23:41:45.245Z,6.39
2022-12-23T23:46:48.282Z,6.27
2022-12-23T23:51:51.172Z,6.50
2022-12-23T23:56:53.895Z,6.09
